Route Details

Aircraft Information
Group: North America Fleet
Types: B738, B752, B762, B763
Route Data
Distance: 560nm
Duration: 2h 04m
Origin METAR: KATL 010525Z 26007KT 9SM FEW018 OVC050 14/13 A3016 RMK AO2 RAE20 P0003 T01440133
Dest. METAR: KRFD 010454Z 19004KT 10SM CLR M18/M22 A3037 RMK AO2 SLP303 T11831222
Freight Data
(for Feb 1, 2023)
Load Factor:
50%
Manifested Cargo: 28,016lbs
Financial History
Total Freight: 88,836lbs
Average Load: 0lbs/flt
Fuel Used: 18,312lbs
Avg. Fuel Used: 0lbs/flt
Fuel Expense: $8,087
Avg. Fuel Expense: $0
Avg. Fuel Cost: $0/lbs
Total Gross Income: $226,532
Pilot Pay: $408
Total Expenses: $45,024
Total Revenue: $172,322
Average Revenue: $0

Capitol Logistics 382




KATL
Hartsfield - Jackson Atlanta International Airport
Atlanta, Georgia
KRFD
Chicago/Rockford International Airport
Rockford, Illinois

Activity Log

Date Flight Route Aircraft Duration
09/10/2022 CPX382 VARNM2 RESPE DCT IIU DCT DNV DCT JOT DCT B763 1h 50m
08/31/2022 CPX382 VARNM2 RESPE IIU JOT B738 1h 44m